Time,TemperatureF,DewpointF,PressureIn,WindDirection,WindDirectionDegrees,WindSpeedMPH,WindSpeedGustMPH,Humidity,HourlyPrecipIn,Conditions,Clouds,dailyrainin,SoftwareType,DateUTC
2015-05-05 00:01:00,69.0,62.0,30.15,ENE,75,4.0,4.0,79,0.00,,,0.00,weatherlink.com 1.10,2015-05-05 04:01:00,
2015-05-05 00:16:00,68.6,62.0,30.15,ENE,74,4.0,4.0,80,0.00,,,0.00,weatherlink.com 1.10,2015-05-05 04:16:00,
2015-05-05 00:31:00,68.4,62.0,30.15,East,81,3.0,5.0,81,0.00,,,0.00,weatherlink.com 1.10,2015-05-05 04:31:00,
2015-05-05 00:46:00,68.1,62.0,30.14,East,80,1.0,5.0,81,0.00,,,0.00,weatherlink.com 1.10,2015-05-05 04:46:00,
2015-05-05 01:01:00,67.8,62.0,30.14,ENE,72,0.0,2.0,82,0.00,,,0.00,weatherlink.com 1.10,2015-05-05 05:01:00,
2015-05-05 01:16:00,67.4,62.0,30.14,ENE,75,2.0,2.0,83,0.00,,,0.00,weatherlink.com 1.10,2015-05-05 05:16:00,
2015-05-05 01:31:00,66.9,62.0,30.14,ENE,74,0.0,3.0,84,0.00,,,0.00,weatherlink.com 1.10,2015-05-05 05:31:00,
2015-05-05 01:46:00,66.5,62.0,30.13,ENE,74,0.0,1.0,84,0.00,,,0.00,weatherlink.com 1.10,2015-05-05 05:46:00,
2015-05-05 02:01:00,66.2,62.0,30.13,NE,51,1.0,3.0,85,0.00,,,0.00,weatherlink.com 1.10,2015-05-05 06:01:00,
2015-05-05 02:16:00,65.9,61.0,30.12,NE,54,1.0,3.0,85,0.00,,,0.00,weatherlink.com 1.10,2015-05-05 06:16:00,
2015-05-05 02:31:00,65.8,62.0,30.12,NE,46,1.0,4.0,86,0.00,,,0.00,weatherlink.com 1.10,2015-05-05 06:31:00,
2015-05-05 02:46:00,65.5,62.0,30.11,ENE,57,1.0,4.0,87,0.00,,,0.00,weatherlink.com 1.10,2015-05-05 06:46:00,
2015-05-05 03:01:00,65.3,61.0,30.11,ENE,61,0.0,4.0,87,0.00,,,0.00,weatherlink.com 1.10,2015-05-05 07:01:00,
2015-05-05 03:16:00,65.0,61.0,30.10,NE,46,2.0,6.0,88,0.00,,,0.00,weatherlink.com 1.10,2015-05-05 07:16:00,
2015-05-05 03:31:00,64.8,61.0,30.10,ENE,65,0.0,7.0,88,0.00,,,0.00,weatherlink.com 1.10,2015-05-05 07:31:00,
2015-05-05 03:46:00,64.7,62.0,30.09,NE,38,2.0,5.0,89,0.00,,,0.00,weatherlink.com 1.10,2015-05-05 07:46:00,
2015-05-05 04:02:00,64.4,61.0,30.09,NE,44,2.0,5.0,89,0.00,,,0.00,weatherlink.com 1.10,2015-05-05 08:02:00,
2015-05-05 04:16:00,64.3,61.0,30.09,ENE,69,0.0,4.0,90,0.00,,,0.00,weatherlink.com 1.10,2015-05-05 08:16:00,
2015-05-05 04:32:00,64.1,62.0,30.09,ENE,69,2.0,5.0,91,0.00,,,0.00,weatherlink.com 1.10,2015-05-05 08:32:00,
2015-05-05 04:47:00,64.1,62.0,30.09,NE,47,2.0,4.0,91,0.00,,,0.00,weatherlink.com 1.10,2015-05-05 08:47:00,
2015-05-05 05:02:00,64.0,61.0,30.09,ENE,57,3.0,4.0,91,0.00,,,0.00,weatherlink.com 1.10,2015-05-05 09:02:00,
2015-05-05 05:17:00,64.0,62.0,30.09,NE,46,2.0,7.0,92,0.00,,,0.00,weatherlink.com 1.10,2015-05-05 09:17:00,
2015-05-05 05:32:00,64.1,62.0,30.08,NE,34,2.0,8.0,92,0.00,,,0.00,weatherlink.com 1.10,2015-05-05 09:32:00,
2015-05-05 05:47:00,64.2,62.0,30.08,NE,50,1.0,5.0,92,0.00,,,0.00,weatherlink.com 1.10,2015-05-05 09:47:00,
2015-05-05 06:02:00,64.3,62.0,30.09,NE,44,1.0,5.0,93,0.00,,,0.00,weatherlink.com 1.10,2015-05-05 10:02:00,
2015-05-05 06:17:00,64.3,62.0,30.09,ENE,67,1.0,6.0,93,0.00,,,0.00,weatherlink.com 1.10,2015-05-05 10:17:00,
2015-05-05 06:32:00,64.3,62.0,30.09,ENE,78,3.0,4.0,93,0.00,,,0.00,weatherlink.com 1.10,2015-05-05 10:32:00,
2015-05-05 06:47:00,64.3,62.0,30.10,East,81,1.0,7.0,93,0.00,,,0.00,weatherlink.com 1.10,2015-05-05 10:47:00,
2015-05-05 07:02:00,64.4,62.0,30.10,NE,44,4.0,4.0,93,0.00,,,0.00,weatherlink.com 1.10,2015-05-05 11:02:00,
2015-05-05 07:17:00,64.5,63.0,30.10,NE,51,1.0,5.0,94,0.00,,,0.00,weatherlink.com 1.10,2015-05-05 11:17:00,
2015-05-05 07:32:00,64.9,63.0,30.11,ENE,76,2.0,8.0,94,0.00,,,0.00,weatherlink.com 1.10,2015-05-05 11:32:00,
2015-05-05 07:47:00,65.4,64.0,30.11,NNE,28,2.0,6.0,94,0.00,,,0.00,weatherlink.com 1.10,2015-05-05 11:47:00,
2015-05-05 08:02:00,66.6,65.0,30.11,ENE,66,3.0,10.0,93,0.00,,,0.00,weatherlink.com 1.10,2015-05-05 12:02:00,
2015-05-05 08:17:00,68.0,65.0,30.11,East,79,1.0,7.0,91,0.00,,,0.00,weatherlink.com 1.10,2015-05-05 12:17:00,
2015-05-05 08:32:00,69.4,66.0,30.12,ENE,78,3.0,7.0,89,0.00,,,0.00,weatherlink.com 1.10,2015-05-05 12:32:00,
2015-05-05 08:47:00,70.4,66.0,30.12,NNE,27,2.0,11.0,87,0.00,,,0.00,weatherlink.com 1.10,2015-05-05 12:47:00,
2015-05-05 09:17:00,73.4,68.0,30.12,East,97,7.0,11.0,82,0.00,,,0.00,weatherlink.com 1.10,2015-05-05 13:17:00,
2015-05-05 09:32:00,74.6,68.0,30.12,East,84,6.0,13.0,81,0.00,,,0.00,weatherlink.com 1.10,2015-05-05 13:32:00,
2015-05-05 09:47:00,75.8,68.0,30.12,East,94,10.0,16.0,77,0.00,,,0.00,weatherlink.com 1.10,2015-05-05 13:47:00,
2015-05-05 10:02:00,76.6,69.0,30.12,ENE,75,8.0,14.0,76,0.00,,,0.00,weatherlink.com 1.10,2015-05-05 14:02:00,
2015-05-05 10:17:00,77.0,68.0,30.12,SE,134,4.0,17.0,74,0.00,,,0.00,weatherlink.com 1.10,2015-05-05 14:17:00,
2015-05-05 10:32:00,77.6,68.0,30.12,ENE,71,9.0,16.0,72,0.00,,,0.00,weatherlink.com 1.10,2015-05-05 14:32:00,
2015-05-05 10:47:00,78.8,68.0,30.12,ESE,111,9.0,18.0,69,0.00,,,0.00,weatherlink.com 1.10,2015-05-05 14:47:00,
2015-05-05 11:02:00,78.5,67.0,30.12,East,90,11.0,17.0,68,0.00,,,0.00,weatherlink.com 1.10,2015-05-05 15:02:00,
2015-05-05 11:17:00,78.1,68.0,30.12,ESE,107,3.0,15.0,70,0.00,,,0.00,weatherlink.com 1.10,2015-05-05 15:17:00,
2015-05-05 11:32:00,78.3,67.0,30.12,East,96,15.0,15.0,68,0.00,,,0.00,weatherlink.com 1.10,2015-05-05 15:32:00,
2015-05-05 11:47:00,79.1,67.0,30.12,ENE,78,8.0,15.0,67,0.00,,,0.00,weatherlink.com 1.10,2015-05-05 15:47:00,
2015-05-05 12:02:00,79.7,67.0,30.12,ESE,104,12.0,17.0,66,0.00,,,0.00,weatherlink.com 1.10,2015-05-05 16:02:00,
2015-05-05 12:17:00,80.7,65.0,30.11,East,96,14.0,18.0,60,0.00,,,0.00,weatherlink.com 1.10,2015-05-05 16:17:00,
2015-05-05 12:32:00,81.6,63.0,30.11,East,101,5.0,17.0,54,0.00,,,0.00,weatherlink.com 1.10,2015-05-05 16:32:00,
2015-05-05 12:47:00,82.2,63.0,30.10,SE,134,6.0,18.0,52,0.00,,,0.00,weatherlink.com 1.10,2015-05-05 16:47:00,
2015-05-05 13:02:00,82.8,62.0,30.10,ESE,119,8.0,17.0,49,0.00,,,0.00,weatherlink.com 1.10,2015-05-05 17:02:00,
2015-05-05 13:17:00,83.0,62.0,30.09,ESE,108,17.0,21.0,50,0.00,,,0.00,weatherlink.com 1.10,2015-05-05 17:17:00,
2015-05-05 13:32:00,83.3,63.0,30.09,ESE,117,11.0,19.0,51,0.00,,,0.00,weatherlink.com 1.10,2015-05-05 17:32:00,
2015-05-05 13:47:00,83.7,65.0,30.08,East,92,17.0,22.0,53,0.00,,,0.00,weatherlink.com 1.10,2015-05-05 17:47:00,
2015-05-05 14:02:00,83.1,65.0,30.08,East,92,21.0,21.0,54,0.00,,,0.00,weatherlink.com 1.10,2015-05-05 18:02:00,
2015-05-05 14:17:00,82.5,65.0,30.08,East,94,9.0,18.0,55,0.00,,,0.00,weatherlink.com 1.10,2015-05-05 18:17:00,
2015-05-05 14:32:00,82.9,64.0,30.08,East,94,7.0,18.0,53,0.00,,,0.00,weatherlink.com 1.10,2015-05-05 18:32:00,
2015-05-05 14:48:00,83.2,64.0,30.07,SE,136,7.0,17.0,52,0.00,,,0.00,weatherlink.com 1.10,2015-05-05 18:48:00,
2015-05-05 15:03:00,82.8,63.0,30.07,East,92,8.0,18.0,52,0.00,,,0.00,weatherlink.com 1.10,2015-05-05 19:03:00,
2015-05-05 15:18:00,83.9,63.0,30.06,East,87,11.0,17.0,49,0.00,,,0.00,weatherlink.com 1.10,2015-05-05 19:18:00,
2015-05-05 15:33:00,84.2,64.0,30.06,NE,46,10.0,15.0,51,0.00,,,0.00,weatherlink.com 1.10,2015-05-05 19:33:00,
2015-05-05 15:48:00,83.8,64.0,30.05,East,86,8.0,19.0,51,0.00,,,0.00,weatherlink.com 1.10,2015-05-05 19:48:00,
2015-05-05 16:03:00,84.4,64.0,30.05,East,84,9.0,15.0,51,0.00,,,0.00,weatherlink.com 1.10,2015-05-05 20:03:00,
2015-05-05 16:18:00,84.1,65.0,30.04,NE,42,6.0,13.0,52,0.00,,,0.00,weatherlink.com 1.10,2015-05-05 20:18:00,
2015-05-05 16:33:00,84.2,65.0,30.03,ENE,71,9.0,16.0,53,0.00,,,0.00,weatherlink.com 1.10,2015-05-05 20:33:00,
2015-05-05 16:48:00,84.0,63.0,30.03,NE,36,7.0,13.0,50,0.00,,,0.00,weatherlink.com 1.10,2015-05-05 20:48:00,
2015-05-05 17:03:00,84.2,63.0,30.03,ESE,104,9.0,16.0,49,0.00,,,0.00,weatherlink.com 1.10,2015-05-05 21:03:00,